Main page
METAR-TAF:

METAR-TAF

Airports :

Mirny Airport

Mirny, Russia

latitude: 62-31-48N, longitude: 114-01-48E, elevation: 347 m

Current weather observation

The report was made 24 minutes ago, at 02:00 UTC
Wind 10 kt from the West
Temperature -20°C
Humidity 77%
Pressure 999 hPa
Visibility 10 km or more
no clouds below 1500 m and no cumulonimbus

METAR: UERR 150200Z 28005MPS CAVOK M20/M23 Q0999 R25/390332 NOSIG RMK QFE719

Time: 11:24 (02:24 UTC)

Forecast

The report was made 3 hours and 24 minutes ago, at 23:00 UTC
Forecast valid from 15 at 00 UTC to 15 at 24 UTC
Wind 6 kt from the West with gusts up to 16 kt
Visibility 10 km or more
Broken clouds at a height of 1500 ft
light snow
Temporary
from 15 at 00 UTC to 15 at 06 UTC
Visibility: 2100 m
Broken clouds at a height of 700 ft
light snow
Becoming
from 15 at 02 UTC to 15 at 04 UTC
Wind 10 kt from the Northwest with gusts up to 19 kt

TAF: UERR 142300Z 1500/1524 26003G08MPS 9999 -SN BKN015 TEMPO 1500/1506 2100 -SN BKN007 BECMG 1502/1504 31005G10MPS

Weather observations and forecasts of more than 4000 airports (METAR and TAF reports).

The available stations are represented by yellow and red dots on the map.

Hover mouse over dot to see the name of the station.

Then click to see weather observations and forecasts.

To change the map : click on the green buttons with a black cross to zoom in, on the green button with a dash to zoom out, or on the green arrows for adjacent maps.


METAR-TAF: